createdAt,value
2022-12-05T00:00:36.979Z,14.27
2022-12-05T00:03:05.894Z,14.83
2022-12-05T00:05:34.918Z,13.83
2022-12-05T00:08:03.357Z,14.20
2022-12-05T00:10:32.691Z,14.30
2022-12-05T00:13:04.073Z,14.00
2022-12-05T00:15:33.132Z,13.97
2022-12-05T00:18:01.329Z,17.87
2022-12-05T00:20:31.325Z,18.67
2022-12-05T00:22:59.527Z,14.80
2022-12-05T00:25:27.528Z,15.03
2022-12-05T00:27:56.956Z,14.23
2022-12-05T00:30:24.969Z,14.70
2022-12-05T00:32:54.092Z,15.43
2022-12-05T00:35:26.102Z,16.53
2022-12-05T00:37:54.187Z,15.03
2022-12-05T00:40:23.038Z,14.93
2022-12-05T00:42:53.582Z,15.77
2022-12-05T00:45:27.676Z,16.27
2022-12-05T00:47:55.698Z,15.43
2022-12-05T00:50:23.780Z,16.17
2022-12-05T00:52:52.946Z,15.27
2022-12-05T00:55:21.626Z,15.70
2022-12-05T00:57:49.743Z,15.07
2022-12-05T01:00:22.734Z,15.37
2022-12-05T01:02:50.788Z,14.67
2022-12-05T01:05:18.941Z,15.50
2022-12-05T01:07:50.174Z,15.33
2022-12-05T01:10:22.165Z,14.63
2022-12-05T01:12:51.042Z,16.07
2022-12-05T01:15:20.038Z,15.30
2022-12-05T01:17:50.060Z,14.87
2022-12-05T01:20:18.508Z,15.60
2022-12-05T01:22:46.469Z,15.27
2022-12-05T01:25:18.116Z,14.73
2022-12-05T01:27:46.111Z,14.60
2022-12-05T01:30:14.782Z,15.93
2022-12-05T01:32:45.531Z,14.87
2022-12-05T01:35:19.673Z,15.53
2022-12-05T01:37:48.678Z,16.27
2022-12-05T01:40:19.462Z,16.10
2022-12-05T01:42:47.375Z,16.57
2022-12-05T01:45:19.072Z,16.53
2022-12-05T01:47:48.101Z,16.77
2022-12-05T01:50:21.679Z,17.53
2022-12-05T01:52:49.869Z,17.23
2022-12-05T01:55:22.073Z,16.47
2022-12-05T01:57:50.434Z,14.13
2022-12-05T02:00:22.157Z,14.87
2022-12-05T02:02:54.680Z,15.80
2022-12-05T02:05:29.048Z,15.47
2022-12-05T02:07:59.988Z,15.00
2022-12-05T02:10:32.055Z,15.70
2022-12-05T02:13:07.070Z,16.07
2022-12-05T02:15:44.072Z,15.17
2022-12-05T02:18:29.981Z,16.13
2022-12-05T02:21:19.052Z,16.03
2022-12-05T02:24:14.002Z,15.93
2022-12-05T02:27:02.099Z,15.53
2022-12-05T02:29:58.334Z,14.87
2022-12-05T02:32:38.061Z,15.13
2022-12-05T02:35:16.095Z,14.73
2022-12-05T02:37:55.268Z,15.63
2022-12-05T02:40:27.752Z,16.23
2022-12-05T02:43:01.284Z,14.73
2022-12-05T02:45:33.672Z,15.63
2022-12-05T02:48:02.840Z,17.57
2022-12-05T02:50:36.129Z,16.00
2022-12-05T02:53:07.972Z,17.17
2022-12-05T02:55:38.103Z,18.07
2022-12-05T02:58:15.648Z,16.23
2022-12-05T03:00:49.319Z,14.33
2022-12-05T03:03:21.090Z,13.63
2022-12-05T03:05:54.964Z,14.00
2022-12-05T03:08:27.374Z,14.07
2022-12-05T03:11:01.670Z,14.10
2022-12-05T03:13:34.261Z,13.67
2022-12-05T03:16:09.655Z,13.17
2022-12-05T03:18:43.531Z,13.80
2022-12-05T03:21:21.262Z,14.23
2022-12-05T03:23:54.111Z,14.00
2022-12-05T03:26:36.058Z,14.33
2022-12-05T03:29:22.045Z,13.27
2022-12-05T03:32:08.003Z,13.37
2022-12-05T03:34:55.094Z,13.27
2022-12-05T03:37:28.365Z,13.53
2022-12-05T03:40:06.516Z,13.93
2022-12-05T03:42:40.136Z,14.13
2022-12-05T03:45:13.095Z,14.63
2022-12-05T03:47:49.287Z,13.60
2022-12-05T03:50:24.086Z,14.90
2022-12-05T03:53:19.128Z,14.17
2022-12-05T03:55:53.086Z,14.27
2022-12-05T03:58:27.377Z,14.47
2022-12-05T04:00:58.641Z,14.60
2022-12-05T04:03:39.742Z,13.27
2022-12-05T04:06:16.399Z,14.93
2022-12-05T04:08:52.116Z,14.43
2022-12-05T04:11:31.395Z,13.00
2022-12-05T04:14:06.210Z,13.43
2022-12-05T04:17:00.363Z,13.43
2022-12-05T04:19:56.500Z,13.37
2022-12-05T04:22:25.087Z,12.07
2022-12-05T04:25:16.642Z,12.63
2022-12-05T04:27:52.150Z,14.00
2022-12-05T04:30:23.216Z,13.20
2022-12-05T04:32:57.025Z,13.30
2022-12-05T04:35:31.091Z,12.67
2022-12-05T04:38:05.364Z,12.90
2022-12-05T04:40:38.008Z,11.63
2022-12-05T04:43:09.124Z,12.33
2022-12-05T04:45:39.593Z,12.30
2022-12-05T04:48:13.413Z,12.97
2022-12-05T04:50:46.003Z,12.03
2022-12-05T04:53:19.513Z,11.87
2022-12-05T04:55:53.717Z,11.90
2022-12-05T04:58:28.247Z,11.80
2022-12-05T05:01:04.037Z,11.80
2022-12-05T05:03:37.707Z,11.40
2022-12-05T05:06:08.275Z,10.50
2022-12-05T05:08:36.297Z,11.07
2022-12-05T05:11:12.583Z,10.87
2022-12-05T05:13:44.202Z,10.97
2022-12-05T05:16:18.357Z,10.67
2022-12-05T05:18:47.175Z,10.17
2022-12-05T05:21:23.014Z,11.20
2022-12-05T05:23:52.105Z,11.80
2022-12-05T05:26:21.016Z,10.27
2022-12-05T05:28:53.390Z,10.77
2022-12-05T05:31:22.401Z,10.87
2022-12-05T05:33:56.130Z,11.37
2022-12-05T05:36:30.155Z,10.83
2022-12-05T05:39:03.481Z,11.80
2022-12-05T05:41:37.137Z,10.80
2022-12-05T05:44:06.133Z,10.83
2022-12-05T05:46:35.951Z,10.57
2022-12-05T05:49:05.482Z,10.20
2022-12-05T05:51:36.242Z,10.00
2022-12-05T05:54:05.048Z,11.07
2022-12-05T05:56:33.040Z,10.87
2022-12-05T05:59:03.194Z,11.70
2022-12-05T06:01:31.753Z,10.77
2022-12-05T06:04:00.200Z,10.77
2022-12-05T06:06:31.447Z,11.27
2022-12-05T06:09:00.934Z,11.33
2022-12-05T06:11:29.877Z,10.43
2022-12-05T06:14:01.249Z,11.63
2022-12-05T06:16:32.510Z,10.90
2022-12-05T06:19:01.111Z,11.07
2022-12-05T06:21:29.489Z,12.40
2022-12-05T06:23:57.555Z,11.43
2022-12-05T06:26:29.434Z,12.20
2022-12-05T06:29:01.466Z,11.60
2022-12-05T06:31:34.500Z,11.87
2022-12-05T06:34:03.336Z,12.97
2022-12-05T06:36:32.158Z,11.70
2022-12-05T06:39:00.786Z,11.93
2022-12-05T06:41:30.307Z,11.70
2022-12-05T06:44:02.160Z,12.73
2022-12-05T06:46:31.288Z,11.57
2022-12-05T06:49:00.016Z,11.97
2022-12-05T06:51:28.228Z,11.70
2022-12-05T06:53:58.047Z,12.57
2022-12-05T06:56:26.202Z,12.87
2022-12-05T06:58:59.146Z,14.50
2022-12-05T07:01:42.488Z,22.97
2022-12-05T07:04:15.646Z,13.20
2022-12-05T07:06:51.131Z,12.50
2022-12-05T07:09:21.661Z,12.93
2022-12-05T07:11:50.152Z,12.63
2022-12-05T07:17:11.657Z,12.73
2022-12-05T07:19:39.617Z,13.00
2022-12-05T07:22:15.738Z,13.43
2022-12-05T07:24:45.051Z,13.27
2022-12-05T07:27:14.252Z,13.03
2022-12-05T07:29:46.376Z,14.13
2022-12-05T07:32:14.515Z,13.13
2022-12-05T07:34:42.570Z,13.20
2022-12-05T07:37:12.405Z,13.00
2022-12-05T07:39:40.608Z,12.93
2022-12-05T07:42:08.674Z,13.37
2022-12-05T07:44:37.131Z,13.63
2022-12-05T07:47:06.513Z,14.00
2022-12-05T07:49:34.521Z,14.00
2022-12-05T07:52:03.185Z,12.30
2022-12-05T07:54:32.078Z,12.43
2022-12-05T07:57:01.546Z,13.00
2022-12-05T07:59:29.661Z,13.53
2022-12-05T08:01:57.661Z,13.27
2022-12-05T08:04:28.163Z,13.33
2022-12-05T08:06:57.185Z,12.87
2022-12-05T08:09:28.220Z,12.43
2022-12-05T08:11:57.180Z,13.10
2022-12-05T08:14:26.212Z,13.17
2022-12-05T08:16:55.088Z,13.57
2022-12-05T08:19:23.368Z,13.73
2022-12-05T08:21:57.091Z,13.17
2022-12-05T08:24:25.431Z,13.00
2022-12-05T08:26:54.135Z,13.10
2022-12-05T08:29:24.199Z,13.37
2022-12-05T08:31:53.168Z,14.27
2022-12-05T08:34:24.319Z,13.23
2022-12-05T08:36:54.231Z,13.77
2022-12-05T08:39:26.423Z,14.43
2022-12-05T08:41:54.486Z,14.03
2022-12-05T08:44:23.185Z,15.07
2022-12-05T08:46:51.521Z,15.20
2022-12-05T08:49:20.423Z,14.70
2022-12-05T08:51:48.403Z,15.37
2022-12-05T08:54:18.198Z,14.43
2022-12-05T08:56:51.151Z,14.93
2022-12-05T08:59:21.456Z,14.17
2022-12-05T09:01:51.449Z,14.60
2022-12-05T09:04:22.213Z,14.10
2022-12-05T09:06:51.800Z,14.70
2022-12-05T09:09:22.182Z,15.20
2022-12-05T09:11:51.019Z,13.73
2022-12-05T09:14:22.274Z,14.77
2022-12-05T09:16:50.467Z,14.43
2022-12-05T09:19:23.557Z,15.40
2022-12-05T09:21:52.279Z,14.90
2022-12-05T09:24:21.578Z,14.63
2022-12-05T09:26:53.279Z,14.87
2022-12-05T09:29:21.773Z,15.17
2022-12-05T09:31:52.381Z,15.00
2022-12-05T09:34:21.208Z,15.47
2022-12-05T09:37:05.725Z,14.30
2022-12-05T09:39:41.602Z,14.17
2022-12-05T09:42:31.216Z,15.77
2022-12-05T09:45:24.071Z,14.67
2022-12-05T09:47:58.354Z,15.33
2022-12-05T09:50:28.740Z,15.20
2022-12-05T09:53:08.307Z,16.37
2022-12-05T09:55:48.418Z,15.20
2022-12-05T09:58:28.241Z,16.23
2022-12-05T10:01:05.119Z,16.87
2022-12-05T10:03:42.752Z,15.90
2022-12-05T10:06:17.290Z,15.80
2022-12-05T10:09:01.618Z,16.57
2022-12-05T10:11:38.362Z,15.83
2022-12-05T10:14:19.751Z,15.47
2022-12-05T10:16:52.122Z,16.13
2022-12-05T10:19:28.210Z,16.13
2022-12-05T10:22:01.375Z,16.00
2022-12-05T10:24:35.218Z,16.63
2022-12-05T10:27:10.920Z,15.73
2022-12-05T10:29:44.085Z,17.10
2022-12-05T10:32:28.433Z,15.30
2022-12-05T10:35:03.572Z,16.00
2022-12-05T10:37:32.278Z,16.27
2022-12-05T10:40:01.339Z,15.53
2022-12-05T10:42:34.155Z,16.67
2022-12-05T10:45:06.151Z,16.73
2022-12-05T10:47:35.275Z,16.17
2022-12-05T10:50:26.362Z,17.23
2022-12-05T10:53:00.377Z,16.53
2022-12-05T10:55:35.581Z,16.30
2022-12-05T10:58:17.680Z,16.13
2022-12-05T11:00:49.105Z,16.27
2022-12-05T11:03:26.994Z,16.17
2022-12-05T11:05:57.151Z,16.20
2022-12-05T11:08:56.026Z,16.17
2022-12-05T11:11:21.429Z,16.93
2022-12-05T11:13:55.492Z,17.00
2022-12-05T11:16:28.339Z,17.40
2022-12-05T11:18:56.542Z,17.10
2022-12-05T11:21:25.238Z,16.83
2022-12-05T11:23:53.392Z,16.73
2022-12-05T11:26:35.590Z,18.33
2022-12-05T11:29:05.929Z,17.17
2022-12-05T11:31:33.972Z,18.13
2022-12-05T11:34:05.791Z,17.40
2022-12-05T11:36:40.451Z,17.10
2022-12-05T11:39:13.575Z,17.83
2022-12-05T11:42:09.464Z,18.00
2022-12-05T11:45:05.545Z,17.77
2022-12-05T11:47:45.978Z,17.13
2022-12-05T11:50:39.249Z,18.10
2022-12-05T11:53:26.434Z,18.40
2022-12-05T11:56:05.590Z,17.60
2022-12-05T11:59:00.504Z,17.20
2022-12-05T12:01:46.215Z,18.00
2022-12-05T12:04:31.988Z,18.67
2022-12-05T12:07:12.245Z,18.27
2022-12-05T12:09:48.635Z,18.60
2022-12-05T12:12:28.151Z,18.60
2022-12-05T12:15:11.317Z,17.53
2022-12-05T12:17:50.807Z,18.33
2022-12-05T12:20:35.131Z,18.73
2022-12-05T12:23:22.139Z,18.30
2022-12-05T12:26:01.250Z,18.73
2022-12-05T12:28:43.149Z,17.87
2022-12-05T12:31:25.338Z,17.33
2022-12-05T12:34:06.343Z,18.53
2022-12-05T12:36:41.155Z,18.70
2022-12-05T12:39:26.800Z,18.33
2022-12-05T12:42:06.191Z,17.53
2022-12-05T12:45:18.452Z,18.87
2022-12-05T12:47:59.001Z,17.43
2022-12-05T12:50:34.216Z,19.50
2022-12-05T12:53:29.205Z,17.67
2022-12-05T12:56:05.286Z,17.63
2022-12-05T12:58:51.385Z,17.70
2022-12-05T13:01:28.319Z,18.13
2022-12-05T13:04:04.416Z,17.80
2022-12-05T13:06:40.687Z,18.43
2022-12-05T13:09:17.408Z,17.47
2022-12-05T13:11:46.661Z,17.20
2022-12-05T13:14:18.750Z,18.30
2022-12-05T13:16:51.326Z,17.73
2022-12-05T13:19:30.139Z,18.67
2022-12-05T13:22:01.300Z,18.77
2022-12-05T13:24:30.270Z,19.10
2022-12-05T13:27:02.181Z,19.00
2022-12-05T13:29:37.999Z,19.03
2022-12-05T13:32:09.747Z,19.00
2022-12-05T13:34:47.491Z,19.17
2022-12-05T13:37:41.932Z,19.50
2022-12-05T13:40:46.584Z,17.43
2022-12-05T13:43:18.680Z,19.07
2022-12-05T13:46:03.759Z,18.50
2022-12-05T13:48:35.297Z,18.97
2022-12-05T13:51:08.308Z,17.77
2022-12-05T13:53:43.502Z,18.50
2022-12-05T13:56:28.097Z,18.83
2022-12-05T13:58:58.311Z,19.13
2022-12-05T14:01:56.428Z,19.23
2022-12-05T14:04:48.202Z,18.63
2022-12-05T14:07:39.747Z,18.33
2022-12-05T14:10:11.130Z,18.63
2022-12-05T14:12:54.075Z,18.77
2022-12-05T14:15:34.872Z,17.93
2022-12-05T14:18:11.329Z,18.67
2022-12-05T14:20:59.381Z,21.27
2022-12-05T14:24:00.173Z,19.23
2022-12-05T14:26:52.352Z,19.60
2022-12-05T14:29:38.657Z,18.20
2022-12-05T14:32:19.301Z,19.20
2022-12-05T14:34:59.031Z,19.03
2022-12-05T14:37:31.116Z,18.27
2022-12-05T14:40:05.726Z,19.63
2022-12-05T14:42:39.966Z,19.20
2022-12-05T14:45:26.129Z,18.60
2022-12-05T14:47:58.682Z,19.23
2022-12-05T14:50:45.333Z,19.67
2022-12-05T14:53:24.190Z,18.37
2022-12-05T14:55:56.293Z,19.90
2022-12-05T14:58:37.352Z,20.47
2022-12-05T15:01:15.572Z,18.70
2022-12-05T15:03:53.603Z,20.23
2022-12-05T15:06:22.910Z,19.27
2022-12-05T15:09:21.155Z,18.27
2022-12-05T15:11:48.207Z,19.80
2022-12-05T15:14:21.179Z,20.27
2022-12-05T15:16:53.320Z,20.03
2022-12-05T15:19:29.972Z,19.70
2022-12-05T15:22:01.970Z,20.90
2022-12-05T15:24:39.034Z,20.70
2022-12-05T15:27:12.227Z,19.70
2022-12-05T15:29:42.103Z,20.33
2022-12-05T15:32:19.938Z,20.57
2022-12-05T15:34:54.544Z,20.77
2022-12-05T15:37:26.029Z,19.40
2022-12-05T15:39:56.387Z,19.20
2022-12-05T15:42:29.577Z,20.03
2022-12-05T15:45:23.645Z,19.97
2022-12-05T15:47:54.317Z,19.83
2022-12-05T15:50:30.131Z,19.93
2022-12-05T15:53:02.631Z,20.07
2022-12-05T15:55:39.343Z,21.37
2022-12-05T15:58:14.422Z,21.17
2022-12-05T16:00:49.148Z,18.43
2022-12-05T16:03:21.733Z,20.37
2022-12-05T16:05:55.062Z,20.07
2022-12-05T16:08:31.187Z,19.60
2022-12-05T16:11:03.514Z,19.80
2022-12-05T16:13:36.745Z,20.60
2022-12-05T16:16:07.375Z,20.27
2022-12-05T16:18:38.080Z,20.00
2022-12-05T16:21:37.989Z,20.07
2022-12-05T16:24:10.253Z,19.87
2022-12-05T16:26:42.576Z,20.33
2022-12-05T16:29:29.246Z,20.53
2022-12-05T16:32:00.251Z,19.87
2022-12-05T16:34:31.274Z,20.90
2022-12-05T16:36:59.580Z,20.13
2022-12-05T16:39:29.193Z,20.33
2022-12-05T16:41:57.427Z,20.93
2022-12-05T16:45:02.142Z,21.00
2022-12-05T16:48:05.121Z,20.57
2022-12-05T16:50:35.340Z,21.13
2022-12-05T16:53:20.328Z,21.80
2022-12-05T16:55:50.350Z,21.80
2022-12-05T16:58:24.366Z,21.17
2022-12-05T17:00:55.217Z,20.70
2022-12-05T17:03:34.576Z,21.87
2022-12-05T17:06:04.153Z,21.70
2022-12-05T17:08:32.113Z,23.83
2022-12-05T17:11:02.000Z,22.60
2022-12-05T17:13:31.650Z,21.47
2022-12-05T17:15:59.800Z,21.93
2022-12-05T17:18:31.702Z,21.60
2022-12-05T17:21:06.784Z,21.63
2022-12-05T17:23:34.847Z,22.17
2022-12-05T17:26:02.903Z,22.03
2022-12-05T17:28:31.067Z,23.80
2022-12-05T17:31:00.214Z,20.50
2022-12-05T17:33:29.568Z,21.87
2022-12-05T17:35:58.072Z,21.63
2022-12-05T17:38:26.139Z,22.47
2022-12-05T17:40:55.116Z,21.00
2022-12-05T17:43:25.345Z,21.23
2022-12-05T17:45:54.820Z,21.33
2022-12-05T17:48:23.220Z,21.30
2022-12-05T17:50:52.586Z,22.00
2022-12-05T17:53:24.379Z,20.67
2022-12-05T17:55:56.547Z,21.17
2022-12-05T17:58:24.888Z,20.73
2022-12-05T18:00:52.975Z,21.67
2022-12-05T18:03:21.132Z,21.43
2022-12-05T18:05:54.187Z,21.83
2022-12-05T18:08:24.320Z,20.33
2022-12-05T18:10:52.436Z,21.87
2022-12-05T18:13:21.413Z,20.50
2022-12-05T18:15:50.143Z,21.30
2022-12-05T18:18:21.795Z,21.80
2022-12-05T18:20:52.300Z,22.13
2022-12-05T18:23:21.889Z,20.77
2022-12-05T18:26:00.971Z,21.30
2022-12-05T18:28:29.224Z,20.33
2022-12-05T18:31:09.236Z,20.63
2022-12-05T18:33:39.805Z,21.03
2022-12-05T18:36:17.290Z,20.90
2022-12-05T18:38:52.067Z,20.70
2022-12-05T18:41:24.096Z,21.50
2022-12-05T18:43:52.261Z,21.50
2022-12-05T18:46:20.455Z,21.00
2022-12-05T18:48:48.917Z,21.17
2022-12-05T18:51:21.439Z,20.53
2022-12-05T18:53:53.214Z,21.30
2022-12-05T18:56:24.928Z,20.70
2022-12-05T18:58:56.057Z,20.70
2022-12-05T19:01:26.627Z,20.47
2022-12-05T19:03:56.084Z,20.77
2022-12-05T19:06:26.676Z,21.17
2022-12-05T19:08:56.917Z,20.93
2022-12-05T19:11:27.971Z,20.93
2022-12-05T19:13:57.000Z,20.60
2022-12-05T19:16:25.332Z,20.27
2022-12-05T19:18:55.893Z,20.77
2022-12-05T19:21:24.265Z,20.60
2022-12-05T19:23:52.498Z,21.47
2022-12-05T19:26:24.474Z,20.90
2022-12-05T19:28:52.923Z,22.03
2022-12-05T19:31:23.082Z,21.03
2022-12-05T19:33:52.861Z,21.20
2022-12-05T19:36:24.331Z,20.40
2022-12-05T19:38:54.157Z,19.90
2022-12-05T19:41:25.545Z,21.13
2022-12-05T19:43:54.480Z,20.77
2022-12-05T19:46:25.896Z,20.77
2022-12-05T19:48:54.252Z,21.00
2022-12-05T19:51:22.553Z,24.03
2022-12-05T19:53:50.888Z,21.37
2022-12-05T19:56:21.340Z,21.10
2022-12-05T19:58:52.179Z,22.20
2022-12-05T20:01:22.122Z,21.83
2022-12-05T20:03:52.200Z,21.23
2022-12-05T20:06:23.507Z,21.47
2022-12-05T20:08:53.408Z,21.50
2022-12-05T20:11:24.784Z,21.90
2022-12-05T20:13:56.263Z,21.33
2022-12-05T20:16:27.381Z,22.77
2022-12-05T20:18:58.137Z,21.87
2022-12-05T20:21:27.731Z,22.33
2022-12-05T20:24:03.331Z,22.83
2022-12-05T20:26:33.004Z,21.03
2022-12-05T20:29:04.182Z,21.77
2022-12-05T20:31:34.369Z,22.63
2022-12-05T20:34:03.479Z,23.30
2022-12-05T20:36:34.482Z,22.37
2022-12-05T20:39:08.432Z,21.70
2022-12-05T20:41:40.620Z,21.37
2022-12-05T20:44:11.517Z,22.27
2022-12-05T20:46:43.514Z,21.73
2022-12-05T20:49:13.175Z,21.23
2022-12-05T20:51:42.705Z,23.70
2022-12-05T20:54:12.715Z,22.93
2022-12-05T20:56:41.265Z,23.13
2022-12-05T20:59:16.621Z,23.40
2022-12-05T21:01:44.871Z,22.43
2022-12-05T21:04:14.458Z,22.23
2022-12-05T21:06:43.850Z,23.03
2022-12-05T21:09:15.937Z,22.83
2022-12-05T21:11:44.409Z,23.60
2022-12-05T21:14:13.830Z,23.47
2022-12-05T21:16:42.433Z,24.27
2022-12-05T21:19:10.648Z,43.43
2022-12-05T21:21:41.232Z,25.73
2022-12-05T21:24:13.536Z,24.40
2022-12-05T21:26:41.621Z,24.20
2022-12-05T21:29:10.700Z,24.60
2022-12-05T21:31:42.221Z,24.23
2022-12-05T21:34:15.634Z,24.13
2022-12-05T21:36:44.863Z,24.13
2022-12-05T21:39:13.273Z,23.40
2022-12-05T21:41:43.314Z,25.03
2022-12-05T21:44:14.853Z,24.93
2022-12-05T21:46:44.472Z,24.63
2022-12-05T21:49:12.775Z,23.80
2022-12-05T21:51:44.425Z,24.70
2022-12-05T21:54:16.435Z,23.90
2022-12-05T21:56:45.901Z,24.53
2022-12-05T21:59:13.869Z,25.03
2022-12-05T22:01:42.548Z,25.07
2022-12-05T22:04:12.314Z,23.80
2022-12-05T22:06:40.390Z,24.43
2022-12-05T22:09:08.571Z,24.93
2022-12-05T22:11:36.679Z,24.80
2022-12-05T22:14:05.099Z,24.77
2022-12-05T22:16:33.902Z,25.10
2022-12-05T22:19:02.553Z,24.30
2022-12-05T22:21:34.146Z,24.03
2022-12-05T22:24:02.460Z,24.30
2022-12-05T22:26:32.421Z,25.53
2022-12-05T22:29:00.539Z,24.07
2022-12-05T22:31:28.698Z,25.03
2022-12-05T22:33:56.731Z,24.00
2022-12-05T22:36:28.208Z,27.90
2022-12-05T22:39:00.544Z,24.67
2022-12-05T22:41:29.383Z,24.57
2022-12-05T22:44:00.441Z,24.77
2022-12-05T22:46:30.503Z,24.40
2022-12-05T22:48:59.340Z,24.60
2022-12-05T22:51:29.081Z,25.33
2022-12-05T22:53:59.371Z,24.30
2022-12-05T22:56:31.425Z,25.00
2022-12-05T22:59:02.156Z,23.97
2022-12-05T23:01:33.459Z,24.13
2022-12-05T23:04:03.444Z,24.67
2022-12-05T23:06:33.554Z,24.87
2022-12-05T23:09:04.745Z,25.00
2022-12-05T23:11:33.203Z,23.50
2022-12-05T23:14:02.641Z,24.73
2022-12-05T23:16:32.908Z,24.50
2022-12-05T23:19:05.626Z,24.50
2022-12-05T23:21:35.712Z,23.57
2022-12-05T23:24:09.516Z,23.67
2022-12-05T23:26:40.488Z,24.40
2022-12-05T23:29:09.532Z,23.57
2022-12-05T23:31:37.552Z,23.30
2022-12-05T23:34:06.514Z,23.93
2022-12-05T23:36:38.671Z,24.10
2022-12-05T23:39:08.213Z,22.77
2022-12-05T23:41:36.520Z,23.77
2022-12-05T23:44:04.816Z,23.20
2022-12-05T23:46:33.532Z,23.60
2022-12-05T23:49:05.634Z,23.13
2022-12-05T23:51:40.155Z,24.40
2022-12-05T23:54:13.502Z,23.23
2022-12-05T23:56:45.541Z,23.83
2022-12-05T23:59:14.132Z,23.47
